sensor_id;sensor_type;location;lat;lon;timestamp;temperature;humidity
37874;DHT22;23709;48.078;11.684;2022-12-05T06:12:12;1.80;99.90
37874;DHT22;23709;48.078;11.684;2022-12-05T06:14:47;1.80;99.90
37874;DHT22;23709;48.078;11.684;2022-12-05T06:17:19;1.90;99.90
37874;DHT22;23709;48.078;11.684;2022-12-05T06:19:51;2.00;99.90
37874;DHT22;23709;48.078;11.684;2022-12-05T06:22:23;2.10;99.90
37874;DHT22;23709;48.078;11.684;2022-12-05T06:24:56;2.20;99.90
37874;DHT22;23709;48.078;11.684;2022-12-05T06:27:28;2.20;99.90
37874;DHT22;23709;48.078;11.684;2022-12-05T06:30:02;2.30;99.90
37874;DHT22;23709;48.078;11.684;2022-12-05T06:32:35;2.50;99.90
37874;DHT22;23709;48.078;11.684;2022-12-05T06:35:07;2.50;99.90
37874;DHT22;23709;48.078;11.684;2022-12-05T06:37:46;2.50;99.90
37874;DHT22;23709;48.078;11.684;2022-12-05T06:40:18;2.60;99.90
37874;DHT22;23709;48.078;11.684;2022-12-05T06:42:50;2.60;99.90
37874;DHT22;23709;48.078;11.684;2022-12-05T06:45:22;2.70;99.90
37874;DHT22;23709;48.078;11.684;2022-12-05T06:47:54;2.80;99.90
37874;DHT22;23709;48.078;11.684;2022-12-05T06:50:26;2.80;99.90
37874;DHT22;23709;48.078;11.684;2022-12-05T06:52:59;2.80;99.90
37874;DHT22;23709;48.078;11.684;2022-12-05T06:55:31;2.80;99.90
37874;DHT22;23709;48.078;11.684;2022-12-05T06:58:03;2.80;99.90
37874;DHT22;23709;48.078;11.684;2022-12-05T07:00:35;2.80;99.90
37874;DHT22;23709;48.078;11.684;2022-12-05T07:03:26;2.90;99.90
37874;DHT22;23709;48.078;11.684;2022-12-05T07:06:02;3.00;99.90
37874;DHT22;23709;48.078;11.684;2022-12-05T07:08:35;3.30;99.90
37874;DHT22;23709;48.078;11.684;2022-12-05T07:11:08;3.50;99.90
37874;DHT22;23709;48.078;11.684;2022-12-05T07:13:40;3.30;99.90
37874;DHT22;23709;48.078;11.684;2022-12-05T07:16:12;3.20;99.90
37874;DHT22;23709;48.078;11.684;2022-12-05T07:18:45;3.20;99.90
37874;DHT22;23709;48.078;11.684;2022-12-05T07:21:17;3.20;99.90
37874;DHT22;23709;48.078;11.684;2022-12-05T07:23:51;3.20;99.90
37874;DHT22;23709;48.078;11.684;2022-12-05T07:26:23;3.10;99.90
37874;DHT22;23709;48.078;11.684;2022-12-05T07:28:56;3.20;99.90
37874;DHT22;23709;48.078;11.684;2022-12-05T07:31:28;3.10;99.90
37874;DHT22;23709;48.078;11.684;2022-12-05T07:34:01;3.20;99.90
37874;DHT22;23709;48.078;11.684;2022-12-05T07:36:33;3.10;99.90
37874;DHT22;23709;48.078;11.684;2022-12-05T07:39:05;3.10;99.90
37874;DHT22;23709;48.078;11.684;2022-12-05T07:41:38;3.20;99.90
37874;DHT22;23709;48.078;11.684;2022-12-05T07:44:12;3.20;99.90
37874;DHT22;23709;48.078;11.684;2022-12-05T07:46:44;3.10;99.90
37874;DHT22;23709;48.078;11.684;2022-12-05T07:49:17;3.10;99.90
37874;DHT22;23709;48.078;11.684;2022-12-05T07:51:49;3.20;99.90
37874;DHT22;23709;48.078;11.684;2022-12-05T07:54:21;3.20;99.90
37874;DHT22;23709;48.078;11.684;2022-12-05T07:56:53;3.20;99.90
37874;DHT22;23709;48.078;11.684;2022-12-05T07:59:26;3.20;99.90
37874;DHT22;23709;48.078;11.684;2022-12-05T08:01:58;3.10;99.90
37874;DHT22;23709;48.078;11.684;2022-12-05T08:04:30;3.00;99.90
37874;DHT22;23709;48.078;11.684;2022-12-05T08:07:02;3.10;99.90
37874;DHT22;23709;48.078;11.684;2022-12-05T08:09:34;3.20;99.90
37874;DHT22;23709;48.078;11.684;2022-12-05T08:12:06;3.20;99.90
37874;DHT22;23709;48.078;11.684;2022-12-05T08:14:38;3.20;99.90
37874;DHT22;23709;48.078;11.684;2022-12-05T08:17:11;3.30;99.90
37874;DHT22;23709;48.078;11.684;2022-12-05T08:19:43;3.30;99.90
37874;DHT22;23709;48.078;11.684;2022-12-05T08:22:15;4.00;99.90
37874;DHT22;23709;48.078;11.684;2022-12-05T08:24:50;3.40;99.90
37874;DHT22;23709;48.078;11.684;2022-12-05T08:27:27;3.50;99.90
37874;DHT22;23709;48.078;11.684;2022-12-05T08:29:59;3.60;99.90
37874;DHT22;23709;48.078;11.684;2022-12-05T08:32:32;3.60;99.90
37874;DHT22;23709;48.078;11.684;2022-12-05T08:35:04;3.60;99.90
37874;DHT22;23709;48.078;11.684;2022-12-05T08:37:36;3.60;99.90
37874;DHT22;23709;48.078;11.684;2022-12-05T08:40:09;3.60;99.90
37874;DHT22;23709;48.078;11.684;2022-12-05T08:42:41;3.60;99.90
37874;DHT22;23709;48.078;11.684;2022-12-05T08:45:13;3.60;99.90
37874;DHT22;23709;48.078;11.684;2022-12-05T08:47:45;3.60;99.90
37874;DHT22;23709;48.078;11.684;2022-12-05T08:50:17;3.60;99.90
37874;DHT22;23709;48.078;11.684;2022-12-05T08:52:50;3.60;99.90
37874;DHT22;23709;48.078;11.684;2022-12-05T08:55:22;3.50;99.90
37874;DHT22;23709;48.078;11.684;2022-12-05T08:57:55;3.50;99.90
37874;DHT22;23709;48.078;11.684;2022-12-05T09:00:27;3.60;99.90
37874;DHT22;23709;48.078;11.684;2022-12-05T09:02:59;3.60;99.90
37874;DHT22;23709;48.078;11.684;2022-12-05T09:05:32;3.60;99.90
37874;DHT22;23709;48.078;11.684;2022-12-05T09:08:04;3.60;99.90
37874;DHT22;23709;48.078;11.684;2022-12-05T09:10:37;3.50;99.90
37874;DHT22;23709;48.078;11.684;2022-12-05T14:00:50;4.20;99.90
37874;DHT22;23709;48.078;11.684;2022-12-05T14:06:05;4.20;99.90
37874;DHT22;23709;48.078;11.684;2022-12-05T14:11:10;4.20;99.90
37874;DHT22;23709;48.078;11.684;2022-12-05T14:13:44;4.30;99.90
37874;DHT22;23709;48.078;11.684;2022-12-05T14:19:05;4.40;99.90
37874;DHT22;23709;48.078;11.684;2022-12-05T14:24:52;4.50;99.90
37874;DHT22;23709;48.078;11.684;2022-12-05T14:31:00;4.50;99.90
37874;DHT22;23709;48.078;11.684;2022-12-05T14:33:36;4.60;99.90
37874;DHT22;23709;48.078;11.684;2022-12-05T14:36:15;4.50;99.90
37874;DHT22;23709;48.078;11.684;2022-12-05T14:38:49;4.50;99.90
37874;DHT22;23709;48.078;11.684;2022-12-05T14:41:27;4.50;99.90
37874;DHT22;23709;48.078;11.684;2022-12-05T14:44:03;4.60;99.90
37874;DHT22;23709;48.078;11.684;2022-12-05T14:46:43;4.60;99.90
37874;DHT22;23709;48.078;11.684;2022-12-05T14:49:54;4.60;99.90
37874;DHT22;23709;48.078;11.684;2022-12-05T14:52:30;4.50;99.90
37874;DHT22;23709;48.078;11.684;2022-12-05T14:55:10;4.50;99.90
37874;DHT22;23709;48.078;11.684;2022-12-05T14:57:48;4.40;99.90
37874;DHT22;23709;48.078;11.684;2022-12-05T15:00:22;4.40;99.90
37874;DHT22;23709;48.078;11.684;2022-12-05T15:02:55;4.40;99.90
37874;DHT22;23709;48.078;11.684;2022-12-05T15:05:32;4.40;99.90
37874;DHT22;23709;48.078;11.684;2022-12-05T15:08:05;4.40;99.90
37874;DHT22;23709;48.078;11.684;2022-12-05T15:10:38;4.30;99.90
37874;DHT22;23709;48.078;11.684;2022-12-05T15:13:18;4.40;99.90
37874;DHT22;23709;48.078;11.684;2022-12-05T15:16:11;4.40;99.90
37874;DHT22;23709;48.078;11.684;2022-12-05T15:18:49;4.40;99.90
37874;DHT22;23709;48.078;11.684;2022-12-05T15:21:23;4.30;99.90
37874;DHT22;23709;48.078;11.684;2022-12-05T15:24:02;4.30;99.90
37874;DHT22;23709;48.078;11.684;2022-12-05T15:26:45;4.30;99.90
37874;DHT22;23709;48.078;11.684;2022-12-05T15:32:00;4.30;99.90
37874;DHT22;23709;48.078;11.684;2022-12-05T15:40:11;4.30;99.90
37874;DHT22;23709;48.078;11.684;2022-12-05T15:42:50;4.30;99.90
37874;DHT22;23709;48.078;11.684;2022-12-05T15:45:25;4.20;99.90
37874;DHT22;23709;48.078;11.684;2022-12-05T15:50:44;4.30;99.90
37874;DHT22;23709;48.078;11.684;2022-12-05T15:53:36;4.30;99.90
37874;DHT22;23709;48.078;11.684;2022-12-05T15:56:19;4.30;99.90
37874;DHT22;23709;48.078;11.684;2022-12-05T15:59:31;4.20;99.90
37874;DHT22;23709;48.078;11.684;2022-12-05T16:02:14;4.30;99.90
37874;DHT22;23709;48.078;11.684;2022-12-05T16:04:49;4.20;99.90
37874;DHT22;23709;48.078;11.684;2022-12-05T16:07:27;4.30;99.90
37874;DHT22;23709;48.078;11.684;2022-12-05T16:10:00;4.20;99.90
37874;DHT22;23709;48.078;11.684;2022-12-05T16:12:38;4.20;99.90
37874;DHT22;23709;48.078;11.684;2022-12-05T16:15:19;4.20;99.90
37874;DHT22;23709;48.078;11.684;2022-12-05T16:17:58;4.20;99.90
37874;DHT22;23709;48.078;11.684;2022-12-05T16:20:34;4.10;99.90
37874;DHT22;23709;48.078;11.684;2022-12-05T16:23:27;4.20;99.90
37874;DHT22;23709;48.078;11.684;2022-12-05T16:26:20;4.10;99.90
37874;DHT22;23709;48.078;11.684;2022-12-05T16:29:00;4.20;99.90
37874;DHT22;23709;48.078;11.684;2022-12-05T16:31:32;4.20;99.90
37874;DHT22;23709;48.078;11.684;2022-12-05T16:34:11;4.20;99.90
37874;DHT22;23709;48.078;11.684;2022-12-05T16:36:47;4.20;99.90
37874;DHT22;23709;48.078;11.684;2022-12-05T16:39:20;4.20;99.90
37874;DHT22;23709;48.078;11.684;2022-12-05T16:41:54;4.10;99.90
37874;DHT22;23709;48.078;11.684;2022-12-05T16:47:02;4.10;99.90
37874;DHT22;23709;48.078;11.684;2022-12-05T16:49:35;4.10;99.90
37874;DHT22;23709;48.078;11.684;2022-12-05T16:52:15;4.10;99.90
37874;DHT22;23709;48.078;11.684;2022-12-05T16:54:48;4.10;99.90
37874;DHT22;23709;48.078;11.684;2022-12-05T16:57:21;4.10;99.90
37874;DHT22;23709;48.078;11.684;2022-12-05T16:59:53;4.10;99.90
37874;DHT22;23709;48.078;11.684;2022-12-05T17:02:25;4.00;99.90
37874;DHT22;23709;48.078;11.684;2022-12-05T17:05:01;4.00;99.90
37874;DHT22;23709;48.078;11.684;2022-12-05T17:07:34;3.90;99.90
37874;DHT22;23709;48.078;11.684;2022-12-05T17:10:06;3.90;99.90
37874;DHT22;23709;48.078;11.684;2022-12-05T17:12:39;3.80;99.90
37874;DHT22;23709;48.078;11.684;2022-12-05T17:15:19;3.80;99.90
37874;DHT22;23709;48.078;11.684;2022-12-05T17:17:51;3.80;99.90
37874;DHT22;23709;48.078;11.684;2022-12-05T17:20:23;3.80;99.90
37874;DHT22;23709;48.078;11.684;2022-12-05T17:22:56;3.80;99.90
37874;DHT22;23709;48.078;11.684;2022-12-05T17:25:33;3.60;99.90
37874;DHT22;23709;48.078;11.684;2022-12-05T17:28:07;3.70;99.90
37874;DHT22;23709;48.078;11.684;2022-12-05T17:30:39;3.50;99.90
37874;DHT22;23709;48.078;11.684;2022-12-05T17:33:13;3.50;99.90
37874;DHT22;23709;48.078;11.684;2022-12-05T17:35:46;3.50;99.90
37874;DHT22;23709;48.078;11.684;2022-12-05T17:38:18;3.40;99.90
37874;DHT22;23709;48.078;11.684;2022-12-05T17:40:50;3.40;99.90
37874;DHT22;23709;48.078;11.684;2022-12-05T17:43:23;3.40;99.90
37874;DHT22;23709;48.078;11.684;2022-12-05T17:46:00;3.40;99.90
37874;DHT22;23709;48.078;11.684;2022-12-05T17:48:32;3.40;99.90
37874;DHT22;23709;48.078;11.684;2022-12-05T17:51:05;3.50;99.90
37874;DHT22;23709;48.078;11.684;2022-12-05T17:53:43;3.40;99.90
37874;DHT22;23709;48.078;11.684;2022-12-05T17:56:16;3.30;99.90
37874;DHT22;23709;48.078;11.684;2022-12-05T17:58:48;3.40;99.90
37874;DHT22;23709;48.078;11.684;2022-12-05T18:01:21;3.20;99.90
37874;DHT22;23709;48.078;11.684;2022-12-05T18:03:53;3.30;99.90
37874;DHT22;23709;48.078;11.684;2022-12-05T18:06:25;3.20;99.90
37874;DHT22;23709;48.078;11.684;2022-12-05T18:09:00;3.10;99.90
37874;DHT22;23709;48.078;11.684;2022-12-05T18:11:32;3.10;99.90
37874;DHT22;23709;48.078;11.684;2022-12-05T18:14:04;3.00;99.90
37874;DHT22;23709;48.078;11.684;2022-12-05T18:16:36;2.90;99.90
37874;DHT22;23709;48.078;11.684;2022-12-05T18:19:09;2.90;99.90
37874;DHT22;23709;48.078;11.684;2022-12-05T18:21:41;2.90;99.90
37874;DHT22;23709;48.078;11.684;2022-12-05T18:24:13;2.90;99.90
37874;DHT22;23709;48.078;11.684;2022-12-05T18:26:45;3.00;99.90
37874;DHT22;23709;48.078;11.684;2022-12-05T18:29:17;2.90;99.90
37874;DHT22;23709;48.078;11.684;2022-12-05T18:31:50;2.90;99.90
37874;DHT22;23709;48.078;11.684;2022-12-05T18:34:22;2.90;99.90
37874;DHT22;23709;48.078;11.684;2022-12-05T18:36:54;2.80;99.90
37874;DHT22;23709;48.078;11.684;2022-12-05T18:39:27;2.80;99.90
37874;DHT22;23709;48.078;11.684;2022-12-05T18:41:59;2.90;99.90
37874;DHT22;23709;48.078;11.684;2022-12-05T18:44:32;2.90;99.90
37874;DHT22;23709;48.078;11.684;2022-12-05T18:47:05;2.80;99.90
37874;DHT22;23709;48.078;11.684;2022-12-05T18:49:37;2.80;99.90
37874;DHT22;23709;48.078;11.684;2022-12-05T18:52:09;2.70;99.90
37874;DHT22;23709;48.078;11.684;2022-12-05T18:54:41;2.70;99.90
37874;DHT22;23709;48.078;11.684;2022-12-05T18:57:13;2.70;99.90
37874;DHT22;23709;48.078;11.684;2022-12-05T18:59:46;2.60;99.90
37874;DHT22;23709;48.078;11.684;2022-12-05T19:02:22;2.60;99.90
37874;DHT22;23709;48.078;11.684;2022-12-05T19:04:56;2.60;99.90
37874;DHT22;23709;48.078;11.684;2022-12-05T19:07:28;2.70;99.90
37874;DHT22;23709;48.078;11.684;2022-12-05T19:10:01;2.70;99.90
37874;DHT22;23709;48.078;11.684;2022-12-05T19:12:34;2.80;99.90
37874;DHT22;23709;48.078;11.684;2022-12-05T19:15:06;2.70;99.90
37874;DHT22;23709;48.078;11.684;2022-12-05T19:17:38;2.80;99.90
37874;DHT22;23709;48.078;11.684;2022-12-05T19:20:10;2.80;99.90
37874;DHT22;23709;48.078;11.684;2022-12-05T19:22:43;2.80;99.90
37874;DHT22;23709;48.078;11.684;2022-12-05T19:25:15;2.80;99.90
37874;DHT22;23709;48.078;11.684;2022-12-05T19:27:47;2.80;99.90
37874;DHT22;23709;48.078;11.684;2022-12-05T19:30:19;2.80;99.90
37874;DHT22;23709;48.078;11.684;2022-12-05T19:32:51;2.80;99.90
37874;DHT22;23709;48.078;11.684;2022-12-05T19:35:24;2.80;99.90
37874;DHT22;23709;48.078;11.684;2022-12-05T19:37:56;2.80;99.90
37874;DHT22;23709;48.078;11.684;2022-12-05T19:40:28;2.80;99.90
37874;DHT22;23709;48.078;11.684;2022-12-05T19:43:00;2.90;99.90
37874;DHT22;23709;48.078;11.684;2022-12-05T19:45:32;2.80;99.90
37874;DHT22;23709;48.078;11.684;2022-12-05T19:48:04;2.80;99.90
37874;DHT22;23709;48.078;11.684;2022-12-05T19:50:36;2.80;99.90
37874;DHT22;23709;48.078;11.684;2022-12-05T19:53:08;2.90;99.90
37874;DHT22;23709;48.078;11.684;2022-12-05T19:55:43;2.80;99.90
37874;DHT22;23709;48.078;11.684;2022-12-05T19:58:15;2.80;99.90
37874;DHT22;23709;48.078;11.684;2022-12-05T20:00:47;2.70;99.90
37874;DHT22;23709;48.078;11.684;2022-12-05T20:03:23;2.70;99.90
37874;DHT22;23709;48.078;11.684;2022-12-05T20:05:56;2.80;99.90
37874;DHT22;23709;48.078;11.684;2022-12-05T20:08:31;2.80;99.90
37874;DHT22;23709;48.078;11.684;2022-12-05T20:11:11;2.80;99.90
37874;DHT22;23709;48.078;11.684;2022-12-05T20:13:44;2.80;99.90
37874;DHT22;23709;48.078;11.684;2022-12-05T20:16:20;2.80;99.90
37874;DHT22;23709;48.078;11.684;2022-12-05T20:18:56;2.80;99.90
37874;DHT22;23709;48.078;11.684;2022-12-05T20:21:33;2.80;99.90
37874;DHT22;23709;48.078;11.684;2022-12-05T20:24:06;2.80;99.90
37874;DHT22;23709;48.078;11.684;2022-12-05T20:26:41;2.80;99.90
37874;DHT22;23709;48.078;11.684;2022-12-05T20:29:13;2.90;99.90
37874;DHT22;23709;48.078;11.684;2022-12-05T20:31:45;2.80;99.90
37874;DHT22;23709;48.078;11.684;2022-12-05T20:34:17;2.90;99.90
37874;DHT22;23709;48.078;11.684;2022-12-05T20:36:49;2.90;99.90
37874;DHT22;23709;48.078;11.684;2022-12-05T20:39:22;2.90;99.90
37874;DHT22;23709;48.078;11.684;2022-12-05T20:41:55;2.90;99.90
37874;DHT22;23709;48.078;11.684;2022-12-05T20:44:28;3.00;99.90
37874;DHT22;23709;48.078;11.684;2022-12-05T20:47:00;3.00;99.90
37874;DHT22;23709;48.078;11.684;2022-12-05T20:49:33;2.90;99.90
37874;DHT22;23709;48.078;11.684;2022-12-05T20:52:05;2.90;99.90
